createdAt,value
2019-02-26T06:12:46.719Z,74.14
2019-02-26T06:13:38.240Z,74.24
2019-02-26T06:14:28.142Z,74.41
2019-02-26T06:15:17.578Z,74.53
2019-02-26T06:16:08.603Z,74.67
2019-02-26T06:16:59.652Z,74.93
2019-02-26T06:17:53.312Z,75.11
2019-02-26T06:18:43.570Z,75.72
2019-02-26T06:19:44.945Z,76.06
2019-02-26T06:20:34.513Z,75.63
2019-02-26T06:21:25.927Z,75.08
2019-02-26T06:22:17.536Z,74.94
2019-02-26T06:23:05.232Z,74.73
2019-02-26T06:24:38.086Z,74.79
2019-02-26T06:25:50.058Z,74.87
2019-02-26T06:26:43.034Z,75.59
2019-02-26T06:27:31.675Z,75.34
2019-02-26T06:28:22.636Z,75.07
2019-02-26T06:32:12.379Z,75.31
2019-02-26T06:39:44.383Z,74.93
2019-02-26T06:40:36.738Z,74.85
2019-02-26T06:41:29.579Z,74.45
2019-02-26T06:42:19.894Z,74.39
2019-02-26T06:43:10.394Z,74.36
2019-02-26T06:44:01.696Z,74.36
2019-02-26T06:44:52.605Z,73.90
2019-02-26T06:45:43.713Z,73.63
2019-02-26T06:46:33.690Z,73.82
2019-02-26T06:47:26.118Z,73.72
2019-02-26T06:48:17.000Z,73.86
2019-02-26T06:49:04.920Z,73.65
2019-02-26T06:49:54.976Z,74.27
2019-02-26T06:51:08.127Z,73.76
2019-02-26T06:52:15.366Z,72.75
2019-02-26T06:53:08.399Z,72.74
2019-02-26T06:58:45.047Z,71.88
2019-02-26T07:00:00.671Z,72.05
2019-02-26T07:01:09.571Z,71.83
2019-02-26T07:02:00.160Z,71.96
2019-02-26T07:02:51.551Z,72.04
2019-02-26T07:03:42.046Z,72.24
2019-02-26T07:04:33.543Z,71.91
2019-02-26T07:05:24.634Z,71.60
2019-02-26T07:06:18.470Z,71.68
2019-02-26T07:07:10.846Z,71.79
2019-02-26T07:07:59.586Z,71.86
2019-02-26T07:08:53.450Z,72.11
2019-02-26T07:09:43.915Z,72.30
2019-02-26T07:10:39.066Z,71.49
2019-02-26T07:11:31.339Z,71.07
2019-02-26T07:12:26.489Z,70.69
2019-02-26T07:14:37.352Z,69.83
2019-02-26T07:15:29.449Z,70.06
2019-02-26T07:16:20.714Z,70.46
2019-02-26T07:17:09.705Z,70.71
2019-02-26T07:18:04.445Z,70.37
2019-02-26T07:18:51.856Z,69.81
2019-02-26T07:19:42.610Z,70.14
2019-02-26T07:20:34.365Z,69.23
2019-02-26T07:21:24.328Z,68.98
2019-02-26T07:22:16.060Z,69.15
2019-02-26T07:23:08.124Z,69.02
2019-02-26T07:23:58.711Z,68.31
2019-02-26T07:24:49.469Z,68.25
2019-02-26T07:25:39.438Z,68.10
2019-02-26T07:26:28.138Z,66.95
2019-02-26T07:27:19.134Z,67.57
2019-02-26T07:28:09.248Z,66.71
2019-02-26T07:29:00.259Z,67.24
2019-02-26T07:29:52.388Z,66.62
2019-02-26T07:30:42.874Z,66.91
2019-02-26T07:31:33.165Z,67.25
2019-02-26T07:32:24.609Z,67.26
2019-02-26T07:33:15.003Z,66.38
2019-02-26T07:34:03.851Z,66.98
2019-02-26T07:34:54.704Z,66.97
2019-02-26T07:35:45.150Z,66.62
2019-02-26T07:36:35.583Z,66.08
2019-02-26T07:37:28.600Z,66.20
2019-02-26T07:38:18.268Z,66.62
2019-02-26T07:39:10.390Z,66.20
2019-02-26T07:39:59.711Z,66.11
2019-02-26T07:40:49.852Z,65.94
2019-02-26T07:41:42.200Z,66.35
2019-02-26T07:42:34.735Z,65.98
2019-02-26T07:43:22.608Z,64.51
2019-02-26T07:44:15.570Z,64.23
2019-02-26T07:45:02.887Z,64.17
2019-02-26T07:45:53.490Z,64.08
2019-02-26T07:46:44.860Z,64.23
2019-02-26T07:47:36.290Z,63.88
2019-02-26T07:48:27.009Z,64.29
2019-02-26T07:49:16.347Z,63.30
2019-02-26T07:50:09.182Z,64.04
2019-02-26T07:50:57.463Z,62.74
2019-02-26T07:51:47.698Z,63.99
2019-02-26T07:52:38.253Z,63.19
2019-02-26T07:53:28.918Z,62.38
2019-02-26T07:54:19.435Z,63.29
2019-02-26T07:55:12.037Z,63.88
2019-02-26T07:56:01.790Z,62.97
2019-02-26T07:56:52.590Z,63.51
2019-02-26T07:57:44.917Z,63.23
2019-02-26T07:58:33.281Z,63.36
2019-02-26T07:59:27.671Z,62.40
2019-02-26T08:00:16.393Z,62.54
2019-02-26T08:01:06.737Z,62.74
2019-02-26T08:01:57.882Z,62.39
2019-02-26T08:02:49.005Z,62.19
2019-02-26T08:03:39.459Z,61.03
2019-02-26T08:04:31.765Z,61.53
2019-02-26T08:05:21.936Z,60.46
2019-02-26T08:06:14.060Z,61.17
2019-02-26T08:07:03.751Z,61.03
2019-02-26T08:07:56.273Z,61.05
2019-02-26T08:08:44.886Z,61.75
2019-02-26T08:09:34.911Z,61.75
2019-02-26T08:10:26.087Z,61.47
2019-02-26T08:11:16.684Z,61.22
2019-02-26T08:12:10.769Z,60.74
2019-02-26T08:12:59.268Z,60.84
2019-02-26T08:13:49.322Z,60.33
2019-02-26T08:14:40.197Z,60.20
2019-02-26T08:15:30.393Z,60.20
2019-02-26T08:16:21.337Z,59.99
2019-02-26T08:17:11.739Z,60.51
2019-02-26T08:18:03.462Z,60.66
2019-02-26T08:18:54.113Z,60.23
2019-02-26T08:19:46.617Z,61.36
2019-02-26T08:20:35.165Z,60.06
2019-02-26T08:21:25.222Z,60.60
2019-02-26T08:22:14.242Z,61.41
2019-02-26T08:23:04.461Z,61.52
2019-02-26T08:23:55.523Z,60.87
2019-02-26T08:24:47.783Z,61.38
2019-02-26T08:25:36.322Z,61.08
2019-02-26T08:26:29.069Z,60.54
2019-02-26T08:27:18.159Z,61.14
2019-02-26T08:28:08.362Z,61.22
2019-02-26T08:29:00.064Z,61.37
2019-02-26T08:29:51.587Z,60.79
2019-02-26T08:30:44.459Z,61.21
2019-02-26T08:31:31.574Z,60.71
2019-02-26T08:32:23.922Z,61.12
2019-02-26T08:33:11.894Z,61.10
2019-02-26T08:34:03.630Z,61.11
2019-02-26T08:34:54.173Z,60.49
2019-02-26T08:35:44.567Z,61.19
2019-02-26T08:36:35.529Z,60.88
2019-02-26T08:37:25.805Z,61.70
2019-02-26T08:38:17.052Z,60.82
2019-02-26T08:39:07.670Z,60.68
2019-02-26T08:39:58.256Z,60.86
2019-02-26T08:40:48.169Z,59.18
2019-02-26T08:41:38.441Z,59.67
2019-02-26T08:42:28.629Z,60.23
2019-02-26T08:43:19.323Z,60.25
2019-02-26T08:44:09.688Z,59.89
2019-02-26T08:45:01.052Z,59.11
2019-02-26T08:45:52.109Z,59.13
2019-02-26T08:46:44.461Z,59.11
2019-02-26T08:47:33.865Z,58.85
2019-02-26T08:48:24.613Z,58.41
2019-02-26T08:49:15.612Z,58.45
2019-02-26T08:50:07.219Z,58.47
2019-02-26T08:51:00.890Z,58.80
2019-02-26T08:51:47.583Z,58.40
2019-02-26T08:52:37.898Z,58.24
2019-02-26T08:53:31.459Z,58.71
2019-02-26T08:54:21.118Z,57.15
2019-02-26T08:55:12.909Z,57.35
2019-02-26T08:56:03.955Z,56.45
2019-02-26T08:56:52.374Z,57.44
2019-02-26T08:57:42.543Z,57.28
2019-02-26T08:58:32.580Z,57.66
2019-02-26T08:59:23.489Z,57.92
2019-02-26T09:00:15.570Z,56.74
2019-02-26T09:01:06.624Z,57.46
2019-02-26T09:01:57.118Z,56.57
2019-02-26T09:02:51.810Z,55.42
2019-02-26T09:03:40.902Z,55.48
2019-02-26T09:04:29.799Z,56.67
2019-02-26T09:05:20.385Z,56.30
2019-02-26T09:06:13.588Z,55.36
2019-02-26T09:07:02.775Z,56.23
2019-02-26T09:07:53.359Z,56.29
2019-02-26T09:08:44.529Z,55.89
2019-02-26T09:09:34.739Z,56.41
2019-02-26T09:10:24.919Z,54.23
2019-02-26T09:11:14.959Z,55.82
2019-02-26T09:12:05.903Z,55.36
2019-02-26T09:12:56.573Z,55.68
2019-02-26T09:13:47.944Z,54.59
2019-02-26T09:14:40.394Z,54.17
2019-02-26T09:15:29.017Z,54.48
2019-02-26T09:16:21.802Z,54.30
2019-02-26T09:17:09.883Z,53.44
2019-02-26T09:18:00.451Z,53.96
2019-02-26T09:18:50.909Z,54.57
2019-02-26T09:19:41.769Z,55.17
2019-02-26T09:20:32.601Z,54.24
2019-02-26T09:21:23.110Z,55.18
2019-02-26T09:22:14.977Z,53.43
2019-02-26T09:23:04.433Z,54.03
2019-02-26T09:23:57.008Z,53.85
2019-02-26T09:24:46.861Z,53.95
2019-02-26T09:25:35.333Z,54.55
2019-02-26T09:26:25.466Z,54.90
2019-02-26T09:27:15.783Z,54.29
2019-02-26T09:28:06.767Z,53.64
2019-02-26T09:28:57.246Z,52.43
2019-02-26T09:29:51.314Z,53.45
2019-02-26T09:30:40.727Z,53.56
2019-02-26T09:31:29.347Z,54.04
2019-02-26T09:32:19.583Z,53.45
2019-02-26T09:33:11.131Z,53.15
2019-02-26T09:34:01.427Z,52.94
2019-02-26T09:34:52.031Z,52.15
2019-02-26T09:35:42.296Z,51.86
2019-02-26T09:36:32.830Z,52.13
2019-02-26T09:37:23.210Z,52.26
2019-02-26T09:38:15.145Z,53.44
2019-02-26T09:39:07.823Z,53.24
2019-02-26T09:39:57.397Z,52.21
2019-02-26T09:40:50.031Z,52.08
2019-02-26T09:41:40.209Z,52.08
2019-02-26T09:42:30.123Z,51.61
2019-02-26T09:43:22.640Z,52.99
2019-02-26T09:44:11.668Z,53.04
2019-02-26T09:45:01.792Z,52.02
2019-02-26T09:45:52.987Z,51.37
2019-02-26T09:46:43.927Z,51.78
2019-02-26T09:47:33.575Z,52.35
2019-02-26T09:48:24.437Z,53.04
2019-02-26T09:49:14.768Z,51.32
2019-02-26T09:50:05.662Z,51.80
2019-02-26T09:50:56.469Z,51.35
2019-02-26T09:51:46.805Z,52.09
2019-02-26T09:52:37.411Z,51.64
2019-02-26T09:53:28.051Z,50.17
2019-02-26T09:54:20.738Z,51.44
2019-02-26T09:55:11.821Z,51.86
2019-02-26T09:56:02.431Z,50.84
2019-02-26T09:56:52.987Z,50.16
2019-02-26T09:57:45.264Z,50.48
2019-02-26T09:58:37.493Z,50.42
2019-02-26T09:59:27.139Z,50.76
2019-02-26T10:00:19.534Z,49.33
2019-02-26T10:01:09.115Z,50.43
2019-02-26T10:01:58.927Z,50.79
2019-02-26T10:02:49.940Z,51.18
2019-02-26T10:03:41.424Z,49.05
2019-02-26T10:04:30.109Z,50.22
2019-02-26T10:05:20.321Z,50.51
2019-02-26T10:06:11.780Z,50.17
2019-02-26T10:07:03.678Z,49.90
2019-02-26T10:07:54.977Z,50.59
2019-02-26T10:08:44.276Z,50.11
2019-02-26T10:09:36.793Z,50.43
2019-02-26T10:10:26.046Z,50.78
2019-02-26T10:11:16.086Z,48.78
2019-02-26T10:12:07.575Z,49.17
2019-02-26T10:12:59.178Z,48.30
2019-02-26T10:13:49.393Z,48.32
2019-02-26T10:14:38.545Z,49.64
2019-02-26T10:15:28.179Z,47.53
2019-02-26T10:16:21.070Z,47.14
2019-02-26T10:17:11.558Z,47.46
2019-02-26T10:18:01.957Z,47.93
2019-02-26T10:18:52.391Z,47.82
2019-02-26T10:19:42.870Z,47.80
2019-02-26T10:20:31.838Z,47.81
2019-02-26T10:21:20.923Z,45.54
2019-02-26T10:22:13.651Z,46.56
2019-02-26T10:23:04.264Z,47.49
2019-02-26T10:23:54.151Z,48.03
2019-02-26T10:24:43.076Z,46.85
2019-02-26T10:25:34.937Z,46.13
2019-02-26T10:26:26.150Z,46.21
2019-02-26T10:27:14.596Z,45.18
2019-02-26T10:28:08.769Z,45.82
2019-02-26T10:29:02.306Z,46.06
2019-02-26T10:29:47.605Z,45.43
2019-02-26T10:30:40.971Z,44.71
2019-02-26T10:31:27.830Z,45.95
2019-02-26T10:32:18.043Z,44.65
2019-02-26T10:33:08.493Z,46.06
2019-02-26T10:33:58.906Z,44.77
2019-02-26T10:34:49.786Z,46.53
2019-02-26T10:35:44.306Z,45.52
2019-02-26T10:36:34.733Z,44.99
2019-02-26T10:37:21.903Z,46.00
2019-02-26T10:38:12.593Z,45.99
2019-02-26T10:39:03.037Z,45.33
2019-02-26T10:39:54.897Z,45.11
2019-02-26T10:40:53.506Z,45.07
2019-02-26T10:41:36.740Z,45.52
2019-02-26T10:42:24.503Z,45.65
2019-02-26T10:43:14.694Z,45.88
2019-02-26T10:44:05.765Z,45.11
2019-02-26T10:44:56.590Z,45.94
2019-02-26T10:45:47.572Z,45.28
2019-02-26T10:46:41.412Z,45.39
2019-02-26T10:47:29.875Z,46.16
2019-02-26T10:48:22.838Z,45.21
2019-02-26T10:49:12.408Z,46.14
2019-02-26T10:50:02.347Z,45.85
2019-02-26T10:50:52.759Z,45.89
2019-02-26T10:51:43.895Z,46.70
2019-02-26T10:52:34.437Z,46.16
2019-02-26T10:53:24.739Z,45.74
2019-02-26T10:54:17.972Z,46.23
2019-02-26T10:55:06.701Z,47.11
2019-02-26T10:55:57.905Z,45.18
2019-02-26T10:56:48.989Z,46.45
2019-02-26T10:57:39.779Z,45.94
2019-02-26T10:58:30.392Z,46.29
2019-02-26T10:59:23.510Z,46.83
2019-02-26T11:00:16.072Z,46.66
2019-02-26T11:01:06.650Z,46.95
2019-02-26T11:02:00.445Z,46.11
2019-02-26T11:02:49.121Z,45.65
2019-02-26T11:03:41.677Z,46.10
2019-02-26T11:04:34.869Z,46.65
2019-02-26T11:05:25.913Z,45.19
2019-02-26T11:06:13.029Z,45.56
2019-02-26T11:07:02.404Z,44.83
2019-02-26T11:07:54.940Z,46.07
2019-02-26T11:08:47.555Z,46.29
2019-02-26T11:09:36.899Z,45.78
2019-02-26T11:10:27.129Z,45.59
2019-02-26T11:11:18.982Z,46.00
2019-02-26T11:12:08.942Z,46.19
2019-02-26T11:12:59.867Z,46.24
2019-02-26T11:13:53.652Z,45.81
2019-02-26T11:14:42.388Z,46.11
2019-02-26T11:15:33.915Z,45.29
2019-02-26T11:16:25.391Z,45.76
2019-02-26T11:17:13.509Z,45.63
2019-02-26T11:18:03.950Z,45.70
2019-02-26T11:18:54.439Z,45.01
2019-02-26T11:19:44.953Z,45.32
2019-02-26T11:20:35.633Z,45.67
2019-02-26T11:21:25.994Z,45.43
2019-02-26T11:22:18.713Z,44.60
2019-02-26T11:23:08.983Z,45.16
2019-02-26T11:24:00.659Z,44.77
2019-02-26T11:24:50.785Z,44.46
2019-02-26T11:25:40.486Z,43.96
2019-02-26T11:26:32.597Z,43.71
2019-02-26T11:27:21.155Z,43.93
2019-02-26T11:28:13.026Z,44.09
2019-02-26T11:29:01.335Z,45.07
2019-02-26T11:29:52.516Z,43.87
2019-02-26T11:30:44.242Z,44.51
2019-02-26T11:31:32.894Z,44.31
2019-02-26T11:32:23.970Z,44.01
2019-02-26T11:33:15.617Z,44.02
2019-02-26T11:34:09.230Z,43.81
2019-02-26T11:34:55.084Z,43.82
2019-02-26T11:35:47.160Z,44.73
2019-02-26T11:36:38.378Z,45.15
2019-02-26T11:37:27.642Z,43.93
2019-02-26T11:38:19.496Z,44.16
2019-02-26T11:39:09.298Z,43.73
2019-02-26T11:40:00.473Z,43.48
2019-02-26T11:40:50.142Z,43.99
2019-02-26T11:41:41.209Z,43.19
2019-02-26T11:42:31.943Z,41.46
2019-02-26T11:43:23.875Z,42.34
2019-02-26T11:44:19.041Z,41.74
2019-02-26T11:45:06.639Z,42.17
2019-02-26T11:45:56.669Z,42.32
2019-02-26T11:46:48.176Z,42.55
2019-02-26T11:47:37.387Z,41.79
2019-02-26T11:48:28.186Z,41.09
2019-02-26T11:49:16.880Z,38.92
2019-02-26T11:50:09.258Z,36.49
2019-02-26T11:51:00.845Z,37.56
2019-02-26T11:51:48.595Z,34.86
2019-02-26T11:52:39.840Z,35.87
2019-02-26T11:53:30.379Z,36.52
2019-02-26T11:54:21.150Z,35.61
2019-02-26T11:55:12.691Z,33.72
2019-02-26T11:56:03.781Z,34.04
2019-02-26T11:56:54.850Z,33.27
2019-02-26T11:57:45.736Z,32.74
2019-02-26T11:58:35.722Z,32.03
2019-02-26T11:59:26.333Z,32.51
2019-02-26T12:00:39.930Z,32.69
2019-02-26T12:01:29.450Z,33.29
2019-02-26T12:02:26.114Z,32.28
2019-02-26T12:03:11.569Z,34.21
2019-02-26T12:04:04.109Z,34.17
2019-02-26T12:04:52.645Z,34.48
2019-02-26T12:05:42.909Z,34.73
2019-02-26T12:06:33.489Z,36.20
2019-02-26T12:07:27.278Z,36.06
2019-02-26T12:08:17.393Z,35.53
2019-02-26T12:09:08.764Z,36.49
2019-02-26T12:10:01.872Z,36.45
2019-02-26T12:10:48.682Z,36.68
2019-02-26T12:11:39.889Z,37.05
2019-02-26T12:12:34.180Z,36.40
2019-02-26T12:13:24.996Z,37.19
2019-02-26T12:14:16.417Z,37.91
2019-02-26T12:15:07.259Z,38.01
2019-02-26T12:15:55.454Z,38.34
2019-02-26T12:16:45.719Z,39.34
2019-02-26T12:17:38.230Z,39.34
2019-02-26T12:18:30.014Z,39.53
2019-02-26T12:19:20.611Z,39.73
2019-02-26T12:20:14.591Z,39.32
2019-02-26T12:21:07.359Z,38.62
2019-02-26T12:21:56.920Z,38.92
2019-02-26T12:22:47.936Z,39.59
2019-02-26T12:23:37.373Z,39.02
2019-02-26T12:24:28.850Z,39.97
2019-02-26T12:25:17.607Z,39.81
2019-02-26T12:26:08.159Z,38.73
2019-02-26T12:26:58.339Z,38.96
2019-02-26T12:27:49.036Z,39.92
2019-02-26T12:28:40.393Z,40.08
2019-02-26T12:29:29.816Z,39.71
2019-02-26T12:30:20.797Z,41.16
2019-02-26T12:31:12.935Z,40.61
2019-02-26T12:32:04.802Z,41.49
2019-02-26T12:32:55.113Z,41.16
2019-02-26T12:33:44.097Z,41.29
2019-02-26T12:34:35.197Z,41.97
2019-02-26T12:35:24.478Z,41.11
2019-02-26T12:36:14.680Z,41.06
2019-02-26T12:37:06.664Z,40.78
2019-02-26T12:37:58.886Z,39.74
2019-02-26T12:38:48.216Z,39.82
2019-02-26T12:39:36.860Z,40.57
2019-02-26T12:40:27.133Z,39.55
2019-02-26T12:41:19.043Z,39.60
2019-02-26T12:42:10.427Z,39.63
2019-02-26T12:42:58.259Z,39.68
2019-02-26T12:43:49.932Z,38.66
2019-02-26T12:44:44.757Z,38.87
2019-02-26T12:45:34.206Z,37.63
2019-02-26T12:46:25.087Z,38.62
2019-02-26T12:47:15.448Z,38.64
2019-02-26T12:48:06.445Z,38.57
2019-02-26T12:48:54.929Z,37.56
2019-02-26T12:49:45.719Z,37.31
2019-02-26T12:50:39.532Z,37.00
2019-02-26T12:51:29.530Z,38.34
2019-02-26T12:52:18.111Z,38.56
2019-02-26T12:53:11.544Z,36.99
2019-02-26T12:53:58.004Z,38.17
2019-02-26T12:54:48.503Z,37.54
2019-02-26T12:55:42.061Z,37.51
2019-02-26T12:56:30.077Z,37.55
2019-02-26T12:57:25.462Z,36.70
2019-02-26T12:58:14.552Z,34.86
2019-02-26T12:59:02.024Z,33.47
2019-02-26T12:59:52.934Z,31.53
2019-02-26T13:00:44.524Z,31.59
2019-02-26T13:01:36.199Z,31.68
2019-02-26T13:02:25.881Z,31.47
2019-02-26T13:03:19.743Z,30.42
2019-02-26T13:04:06.151Z,30.97
2019-02-26T13:04:56.270Z,31.05
2019-02-26T13:05:49.207Z,29.67
2019-02-26T13:06:38.270Z,30.26
2019-02-26T13:07:28.689Z,31.15
2019-02-26T13:08:20.538Z,32.34
2019-02-26T13:09:09.969Z,33.11
2019-02-26T13:10:03.624Z,33.16
2019-02-26T13:10:55.607Z,33.75
2019-02-26T13:12:00.146Z,32.49
2019-02-26T13:12:32.593Z,34.27
2019-02-26T13:13:23.356Z,33.99
2019-02-26T13:14:13.855Z,33.60
2019-02-26T13:15:09.432Z,34.58
2019-02-26T13:15:56.960Z,35.10
2019-02-26T13:16:48.842Z,34.71
2019-02-26T13:17:37.975Z,35.11
2019-02-26T13:18:28.534Z,34.51
2019-02-26T13:19:22.683Z,35.14
2019-02-26T13:20:15.619Z,36.08
2019-02-26T13:21:11.094Z,34.84
2019-02-26T13:22:05.134Z,35.85
2019-02-26T13:22:47.361Z,35.24
2019-02-26T13:23:37.825Z,35.52
2019-02-26T13:24:29.650Z,36.10
2019-02-26T13:25:22.565Z,36.46
2019-02-26T13:26:14.151Z,36.67
2019-02-26T13:27:01.745Z,36.67
2019-02-26T13:27:52.246Z,36.73
2019-02-26T13:28:46.725Z,36.65
2019-02-26T13:29:33.570Z,37.93
2019-02-26T13:30:24.690Z,36.27
2019-02-26T13:31:20.605Z,37.69
2019-02-26T13:32:07.843Z,37.10
2019-02-26T13:32:59.917Z,38.15
2019-02-26T13:33:47.128Z,38.35
2019-02-26T13:34:37.820Z,38.93
2019-02-26T13:35:28.845Z,38.90
2019-02-26T13:36:18.209Z,37.71
2019-02-26T13:37:08.292Z,38.66
2019-02-26T13:37:58.659Z,38.76
2019-02-26T13:38:49.534Z,38.63
2019-02-26T13:39:41.526Z,38.84
2019-02-26T13:40:38.089Z,38.95
2019-02-26T13:42:18.892Z,38.95
2019-02-26T13:43:55.994Z,39.33
2019-02-26T13:44:46.690Z,38.92
2019-02-26T13:45:37.149Z,38.74
2019-02-26T13:46:27.212Z,39.66
2019-02-26T13:47:17.291Z,39.98
2019-02-26T13:48:07.481Z,40.06
2019-02-26T13:48:58.550Z,39.16
2019-02-26T13:49:50.033Z,39.59
2019-02-26T13:50:41.002Z,40.17
2019-02-26T13:51:32.131Z,39.92
2019-02-26T13:52:23.176Z,39.82
2019-02-26T13:53:14.033Z,39.84
2019-02-26T13:54:05.900Z,39.98
2019-02-26T13:54:56.548Z,39.81
2019-02-26T13:55:47.202Z,39.61
2019-02-26T13:56:38.539Z,40.30
2019-02-26T13:57:29.441Z,40.35
2019-02-26T13:58:20.121Z,41.23
2019-02-26T13:59:10.679Z,41.91
2019-02-26T14:00:01.466Z,41.82
2019-02-26T14:00:51.862Z,42.50
2019-02-26T14:01:42.159Z,42.75
2019-02-26T14:02:33.312Z,42.65
2019-02-26T14:03:24.069Z,42.65
2019-02-26T14:04:14.204Z,42.88
2019-02-26T14:05:06.438Z,43.88
2019-02-26T14:05:56.622Z,43.92
2019-02-26T14:06:46.794Z,43.33
2019-02-26T14:07:36.889Z,43.61
2019-02-26T14:08:27.729Z,43.58
2019-02-26T14:09:18.414Z,43.74
2019-02-26T14:10:11.008Z,44.40
2019-02-26T14:11:01.150Z,44.62
2019-02-26T14:11:51.785Z,44.62
2019-02-26T14:12:42.268Z,44.51
2019-02-26T14:13:32.419Z,44.71
2019-02-26T14:14:22.576Z,44.67
2019-02-26T14:15:15.035Z,44.87
2019-02-26T14:16:06.147Z,45.19
2019-02-26T14:16:57.864Z,45.04
2019-02-26T14:17:48.770Z,45.40
2019-02-26T14:18:39.694Z,45.53
2019-02-26T14:19:31.075Z,45.96
2019-02-26T14:20:21.954Z,45.70
2019-02-26T14:21:12.606Z,45.81
2019-02-26T14:22:03.347Z,46.12
2019-02-26T14:22:54.455Z,46.14
2019-02-26T14:23:45.324Z,46.99
2019-02-26T14:24:36.423Z,46.26
2019-02-26T14:25:27.237Z,46.25
2019-02-26T14:26:19.327Z,46.78
2019-02-26T14:27:09.911Z,46.63
2019-02-26T14:28:00.120Z,46.65
2019-02-26T14:28:50.399Z,46.58
2019-02-26T14:29:40.554Z,46.41
2019-02-26T14:30:30.701Z,46.46
2019-02-26T14:31:21.354Z,47.28
2019-02-26T14:32:11.957Z,46.88
2019-02-26T14:33:02.149Z,47.24
2019-02-26T14:33:52.944Z,47.05
2019-02-26T14:34:43.594Z,46.93
2019-02-26T14:35:33.953Z,46.93
2019-02-26T14:36:25.796Z,46.22
2019-02-26T14:37:15.871Z,46.10
2019-02-26T14:38:06.113Z,45.96
2019-02-26T14:38:56.637Z,45.91
2019-02-26T14:39:47.462Z,46.39
2019-02-26T14:40:38.740Z,46.02
2019-02-26T14:41:29.026Z,45.93
2019-02-26T14:42:21.568Z,46.72
2019-02-26T14:43:09.710Z,46.44
2019-02-26T14:44:01.181Z,45.86
2019-02-26T14:44:51.595Z,46.07
2019-02-26T14:45:41.885Z,46.12
2019-02-26T14:46:33.161Z,46.27
2019-02-26T14:47:23.818Z,46.33
2019-02-26T14:48:13.953Z,46.55
2019-02-26T14:49:04.579Z,46.48
2019-02-26T14:49:54.878Z,46.15
2019-02-26T14:50:45.514Z,46.00
2019-02-26T14:51:35.701Z,46.06
2019-02-26T14:52:25.677Z,45.91
2019-02-26T14:53:16.843Z,45.77
2019-02-26T14:54:06.884Z,45.36
2019-02-26T14:54:57.045Z,43.85
2019-02-26T14:55:48.403Z,44.58
2019-02-26T14:56:38.760Z,44.97
2019-02-26T14:57:29.499Z,44.73
2019-02-26T14:58:20.784Z,45.62
2019-02-26T14:59:11.616Z,44.75
2019-02-26T15:00:02.523Z,45.54
2019-02-26T15:00:57.654Z,45.78
2019-02-26T15:01:44.387Z,45.92
2019-02-26T15:02:34.906Z,45.74
2019-02-26T15:03:25.154Z,45.71
2019-02-26T15:04:15.735Z,45.29
2019-02-26T15:05:07.210Z,45.94
2019-02-26T15:05:57.769Z,45.67
2019-02-26T15:06:47.912Z,46.18
2019-02-26T15:07:38.687Z,46.31
2019-02-26T15:08:29.002Z,46.08
2019-02-26T15:09:19.346Z,45.91
2019-02-26T15:10:10.667Z,46.32
2019-02-26T15:11:02.160Z,46.22
2019-02-26T15:11:52.959Z,46.21
2019-02-26T15:12:43.077Z,46.15
2019-02-26T15:13:34.298Z,46.31
2019-02-26T15:14:25.121Z,46.85
2019-02-26T15:15:15.254Z,47.29
2019-02-26T15:16:06.003Z,46.63
2019-02-26T15:16:56.456Z,46.90
2019-02-26T15:17:48.221Z,46.58
2019-02-26T15:18:38.176Z,46.49
2019-02-26T15:19:29.252Z,46.86
2019-02-26T15:20:20.005Z,46.66
2019-02-26T15:21:10.491Z,47.14
2019-02-26T15:22:01.059Z,47.20
2019-02-26T15:22:51.625Z,47.32
2019-02-26T15:23:42.136Z,47.19
2019-02-26T15:24:33.300Z,47.60
2019-02-26T15:25:23.888Z,48.08
2019-02-26T15:26:14.291Z,47.57
2019-02-26T15:27:05.127Z,47.62
2019-02-26T15:28:04.535Z,47.89
2019-02-26T15:28:46.542Z,48.42
2019-02-26T15:29:36.623Z,48.98
2019-02-26T15:30:27.559Z,48.81
2019-02-26T15:31:18.298Z,48.86
2019-02-26T15:32:08.593Z,48.41
2019-02-26T15:32:58.794Z,48.57
2019-02-26T15:33:49.147Z,48.76
2019-02-26T15:34:39.417Z,48.84
2019-02-26T15:35:29.751Z,48.61
2019-02-26T15:36:19.866Z,48.47
2019-02-26T15:37:10.015Z,48.30
2019-02-26T15:38:00.350Z,47.98
2019-02-26T15:38:50.758Z,48.39
2019-02-26T15:39:41.749Z,48.87
2019-02-26T15:40:32.644Z,48.70
2019-02-26T15:41:23.119Z,48.70
2019-02-26T15:42:13.799Z,48.53
2019-02-26T15:43:04.551Z,49.34
2019-02-26T15:43:56.539Z,49.05
2019-02-26T15:44:45.326Z,48.52
2019-02-26T15:45:35.755Z,48.32
2019-02-26T15:46:26.115Z,48.54
2019-02-26T15:47:17.249Z,48.31
2019-02-26T15:48:08.071Z,48.48
2019-02-26T15:48:59.033Z,47.95
2019-02-26T15:49:49.849Z,48.27
2019-02-26T15:50:40.432Z,48.11
2019-02-26T15:51:30.881Z,48.29
2019-02-26T15:52:22.277Z,48.12
2019-02-26T15:53:12.140Z,48.25
2019-02-26T15:54:02.453Z,47.79
2019-02-26T15:54:53.030Z,47.31
2019-02-26T15:55:43.489Z,47.46
2019-02-26T15:56:34.339Z,47.84
2019-02-26T15:57:24.943Z,47.00
2019-02-26T15:58:15.979Z,47.56
2019-02-26T15:59:07.551Z,47.49
2019-02-26T15:59:57.904Z,48.12
2019-02-26T16:00:48.419Z,47.59
2019-02-26T16:01:38.975Z,47.91
2019-02-26T16:02:29.812Z,47.94
2019-02-26T16:03:20.242Z,48.09
2019-02-26T16:04:10.702Z,48.35
2019-02-26T16:05:02.225Z,48.38
2019-02-26T16:05:54.004Z,48.58
2019-02-26T16:06:42.924Z,48.56
2019-02-26T16:07:33.155Z,48.75
2019-02-26T16:08:23.416Z,48.36
2019-02-26T16:09:14.820Z,48.83
2019-02-26T16:10:05.219Z,48.83
2019-02-26T16:10:57.715Z,48.99
2019-02-26T16:11:48.412Z,48.93
2019-02-26T16:12:38.861Z,49.18
2019-02-26T16:13:29.680Z,49.00
2019-02-26T16:14:20.631Z,49.99
2019-02-26T16:15:11.601Z,49.21
2019-02-26T16:16:02.223Z,49.56
2019-02-26T16:16:53.293Z,49.28
2019-02-26T16:17:44.602Z,49.92
2019-02-26T16:18:35.456Z,49.64
2019-02-26T16:19:26.911Z,49.76
2019-02-26T16:20:18.368Z,49.56
2019-02-26T16:21:08.979Z,49.66
2019-02-26T16:22:00.050Z,49.49
2019-02-26T16:22:50.804Z,49.58
2019-02-26T16:23:41.813Z,49.72
2019-02-26T16:24:32.890Z,49.65
2019-02-26T16:25:23.473Z,49.88
2019-02-26T16:26:14.489Z,49.48
2019-02-26T16:27:05.294Z,49.62
2019-02-26T16:27:56.352Z,49.93
2019-02-26T16:28:47.454Z,49.59
2019-02-26T16:29:38.710Z,49.88
2019-02-26T16:30:29.808Z,50.77
2019-02-26T16:31:20.661Z,50.69
2019-02-26T16:32:11.741Z,50.03
2019-02-26T16:33:03.315Z,49.93
2019-02-26T16:33:53.764Z,50.34
2019-02-26T16:34:44.353Z,50.39
2019-02-26T16:35:35.914Z,49.92
2019-02-26T16:36:28.762Z,50.16
2019-02-26T16:37:17.680Z,50.29
2019-02-26T16:38:09.057Z,50.37
2019-02-26T16:39:00.291Z,49.92
2019-02-26T16:39:51.255Z,49.76
2019-02-26T16:40:42.730Z,50.17
2019-02-26T16:41:33.214Z,50.91
2019-02-26T16:42:24.113Z,50.24
2019-02-26T16:43:17.089Z,50.68
2019-02-26T16:44:05.999Z,50.86
2019-02-26T16:44:58.341Z,50.81
2019-02-26T16:45:48.774Z,51.11
2019-02-26T16:46:42.124Z,50.77
2019-02-26T16:47:31.172Z,50.84
2019-02-26T16:48:22.196Z,51.38
2019-02-26T16:49:13.300Z,51.25
2019-02-26T16:50:12.645Z,51.05
2019-02-26T16:50:55.841Z,51.25
2019-02-26T16:51:46.882Z,51.74
2019-02-26T16:52:37.675Z,51.57
2019-02-26T16:53:29.319Z,52.32
2019-02-26T16:54:19.903Z,52.23
2019-02-26T16:55:14.118Z,52.20
2019-02-26T16:56:02.065Z,52.27
2019-02-26T16:56:54.667Z,52.76
2019-02-26T16:57:44.195Z,52.96
2019-02-26T16:58:36.092Z,52.83
2019-02-26T16:59:26.464Z,53.18
2019-02-26T17:00:20.587Z,53.11
2019-02-26T17:01:11.687Z,53.36
2019-02-26T17:02:02.691Z,53.71
2019-02-26T17:02:53.600Z,53.48
2019-02-26T17:03:43.973Z,53.27
2019-02-26T17:04:35.331Z,53.97
2019-02-26T17:05:25.929Z,53.81
2019-02-26T17:06:20.478Z,53.76
2019-02-26T17:07:09.249Z,53.86
2019-02-26T17:08:00.367Z,53.90
2019-02-26T17:08:52.064Z,53.90
2019-02-26T17:09:42.900Z,54.75
2019-02-26T17:10:34.206Z,54.84
2019-02-26T17:11:25.211Z,55.12
2019-02-26T17:12:16.399Z,55.06
2019-02-26T17:13:07.641Z,55.19
2019-02-26T17:13:58.898Z,55.28
2019-02-26T17:14:51.109Z,54.85
2019-02-26T17:15:41.762Z,54.76
2019-02-26T17:16:32.711Z,54.37
2019-02-26T17:17:23.521Z,54.32
2019-02-26T17:18:16.177Z,54.81
2019-02-26T17:19:05.428Z,55.25
2019-02-26T17:19:57.350Z,54.28
2019-02-26T17:20:48.510Z,53.84
2019-02-26T17:21:39.116Z,54.09
2019-02-26T17:22:30.607Z,54.28
2019-02-26T17:23:21.351Z,54.37
2019-02-26T17:24:13.107Z,54.41
2019-02-26T17:25:04.915Z,55.31
2019-02-26T17:25:55.619Z,54.68
2019-02-26T17:26:47.439Z,54.40